Time;durP1;ratioP1;P1;durP2;ratioP2;P2;SDS_P1;SDS_P2;PMS_P1;PMS_P2;Temp;Humidity;BMP_temperature;BMP_pressure;BME280_temperature;BME280_humidity;BME280_pressure;Samples;Min_cycle;Max_cycle;Signal;HPM_P1;HPM_P2
2023/03/10 00:01:51;;;;;;;20.90;14.98;;;14.70;86.10;;;;;;6246040;23;20000;-80
2023/03/10 00:04:16;;;;;;;20.63;14.85;;;14.70;86.30;;;;;;6246274;23;20079;-80
2023/03/10 00:06:42;;;;;;;22.88;15.52;;;14.70;86.30;;;;;;6218771;23;20011;-81
2023/03/10 00:09:11;;;;;;;21.02;14.63;;;14.70;86.30;;;;;;6245530;23;20064;-81
2023/03/10 00:11:38;;;;;;;21.45;14.85;;;14.60;86.40;;;;;;6245569;23;20004;-81
2023/03/10 00:14:03;;;;;;;22.52;14.10;;;14.50;86.30;;;;;;6246029;23;20011;-81
2023/03/10 00:16:30;;;;;;;20.27;14.23;;;14.60;86.50;;;;;;6245778;23;20004;-80
2023/03/10 00:18:56;;;;;;;22.77;14.90;;;14.60;86.60;;;;;;6245772;23;20031;-80
2023/03/10 00:21:28;;;;;;;24.15;14.85;;;14.50;86.70;;;;;;6244479;23;20014;-81
2023/03/10 00:23:55;;;;;;;19.63;14.52;;;14.40;86.70;;;;;;6244063;23;20003;-80
2023/03/10 00:26:22;;;;;;;21.33;14.60;;;14.50;86.80;;;;;;6244730;23;20004;-80
2023/03/10 00:28:48;;;;;;;30.92;17.77;;;14.50;86.80;;;;;;6244783;23;20008;-81
2023/03/10 00:31:17;;;;;;;24.40;15.38;;;14.40;87.30;;;;;;6245491;23;20434;-81
2023/03/10 00:33:42;;;;;;;22.15;14.43;;;14.40;87.20;;;;;;6246201;23;20028;-82
2023/03/10 00:36:10;;;;;;;24.13;15.00;;;14.40;87.10;;;;;;6246194;23;20027;-82
2023/03/10 00:38:36;;;;;;;22.17;13.82;;;14.40;87.30;;;;;;6245831;23;20070;-81
2023/03/10 00:41:17;;;;;;;19.38;14.10;;;14.40;87.40;;;;;;6245854;23;20068;-81
2023/03/10 00:43:44;;;;;;;18.85;13.27;;;14.40;87.50;;;;;;6246370;23;20024;-81
2023/03/10 00:46:09;;;;;;;19.90;14.38;;;14.40;87.60;;;;;;6245816;23;20307;-80
2023/03/10 00:48:36;;;;;;;22.17;14.82;;;14.30;87.60;;;;;;6245861;23;20015;-81
2023/03/10 00:51:03;;;;;;;27.70;18.70;;;14.30;87.60;;;;;;6219056;23;20008;-81
2023/03/10 00:53:29;;;;;;;25.70;18.33;;;14.30;87.80;;;;;;6245791;23;20028;-81
2023/03/10 00:56:04;;;;;;;23.73;16.88;;;14.00;88.90;;;;;;6218323;23;20327;-81
2023/03/10 00:58:31;;;;;;;22.27;14.23;;;13.90;89.00;;;;;;6245674;23;20398;-81
2023/03/10 01:00:57;;;;;;;32.10;19.67;;;13.80;89.20;;;;;;6245502;23;20010;-81
2023/03/10 01:03:23;;;;;;;20.92;14.55;;;13.80;89.40;;;;;;6246063;23;20071;-80
2023/03/10 01:05:52;;;;;;;22.70;14.40;;;13.80;89.60;;;;;;6245498;23;19996;-81
2023/03/10 01:08:18;;;;;;;25.55;17.48;;;13.80;89.10;;;;;;6245723;23;20000;-81
2023/03/10 01:10:44;;;;;;;20.23;12.95;;;13.70;90.00;;;;;;6244957;23;20003;-80
2023/03/10 01:13:11;;;;;;;20.73;15.13;;;13.70;89.80;;;;;;6245679;23;20426;-81
2023/03/10 01:15:38;;;;;;;17.33;13.02;;;13.70;89.70;;;;;;6245935;23;20067;-81
2023/03/10 01:18:04;;;;;;;18.77;13.85;;;13.70;89.80;;;;;;6218456;23;20357;-81
2023/03/10 01:20:33;;;;;;;18.52;12.77;;;13.70;89.50;;;;;;6245742;23;20006;-81
2023/03/10 01:22:59;;;;;;;16.83;13.03;;;13.80;89.50;;;;;;6245475;23;20007;-81
2023/03/10 01:25:26;;;;;;;26.33;14.88;;;13.90;89.60;;;;;;6245374;23;20246;-80
2023/03/10 01:27:52;;;;;;;20.67;13.30;;;13.90;89.50;;;;;;6245221;23;20298;-80
2023/03/10 01:30:18;;;;;;;18.00;13.23;;;13.90;89.30;;;;;;6245447;23;20034;-80
2023/03/10 01:32:43;;;;;;;24.48;16.40;;;13.90;89.30;;;;;;6244491;23;20040;-81
2023/03/10 01:35:09;;;;;;;18.02;13.20;;;13.90;89.80;;;;;;6245445;23;20004;-80
2023/03/10 01:37:35;;;;;;;23.60;14.32;;;13.90;89.80;;;;;;6245599;23;20038;-81
2023/03/10 01:40:04;;;;;;;24.40;14.10;;;13.80;90.00;;;;;;6245921;23;20000;-81
2023/03/10 01:42:30;;;;;;;27.83;15.43;;;13.80;90.10;;;;;;6245247;23;20410;-82
2023/03/10 01:45:14;;;;;;;18.83;13.60;;;13.70;90.20;;;;;;6218809;23;20011;-82
2023/03/10 01:47:44;;;;;;;21.25;14.05;;;13.60;90.30;;;;;;6244950;23;20032;-82
2023/03/10 01:50:13;;;;;;;21.17;14.43;;;13.50;90.70;;;;;;6245086;23;20001;-81
2023/03/10 01:52:41;;;;;;;19.08;13.45;;;13.50;90.70;;;;;;6245432;23;20004;-81
2023/03/10 01:55:16;;;;;;;27.05;13.63;;;13.50;90.30;;;;;;6217840;23;20015;-81
2023/03/10 01:57:49;;;;;;;20.55;12.82;;;13.50;90.30;;;;;;6245092;23;20004;-82
2023/03/10 02:00:16;;;;;;;20.17;12.63;;;13.60;90.30;;;;;;6245099;23;20458;-82
2023/03/10 02:03:02;;;;;;;16.75;12.02;;;13.60;90.30;;;;;;6245359;23;20000;-82
2023/03/10 02:05:30;;;;;;;17.98;12.30;;;13.70;90.30;;;;;;6247122;23;20019;-82
2023/03/10 02:07:58;;;;;;;22.00;13.85;;;13.70;90.30;;;;;;6247302;23;20027;-82
2023/03/10 02:10:25;;;;;;;16.58;11.80;;;13.70;90.40;;;;;;6247792;23;20010;-83
2023/03/10 02:12:50;;;;;;;17.58;12.38;;;13.70;90.20;;;;;;6247291;23;20011;-83
2023/03/10 02:15:16;;;;;;;19.27;12.13;;;13.70;90.20;;;;;;6220268;23;20008;-83
2023/03/10 02:17:42;;;;;;;18.30;12.10;;;13.80;90.20;;;;;;6247256;23;20003;-82
2023/03/10 02:20:19;;;;;;;19.30;12.70;;;13.80;90.10;;;;;;6247439;23;20008;-83
2023/03/10 02:22:44;;;;;;;18.88;14.05;;;13.80;90.10;;;;;;6247702;23;20008;-83
2023/03/10 02:25:34;;;;;;;17.75;12.60;;;13.80;90.10;;;;;;6247652;23;20063;-83
2023/03/10 02:28:00;;;;;;;24.37;14.67;;;13.70;90.20;;;;;;6247714;23;20035;-83
2023/03/10 02:30:32;;;;;;;19.83;12.80;;;13.60;90.40;;;;;;6247114;23;19996;-82
2023/03/10 02:33:03;;;;;;;18.88;13.13;;;13.60;90.60;;;;;;6246963;23;20019;-82
2023/03/10 02:35:28;;;;;;;19.35;13.10;;;13.50;90.50;;;;;;6247465;23;20003;-81
2023/03/10 02:37:54;;;;;;;17.15;13.45;;;13.50;90.40;;;;;;6247144;23;20004;-81
2023/03/10 02:40:51;;;;;;;19.58;14.45;;;13.50;90.30;;;;;;6247270;23;20426;-82
2023/03/10 02:43:21;;;;;;;21.63;13.57;;;13.50;90.40;;;;;;6232244;23;20026;-81
2023/03/10 02:45:49;;;;;;;17.20;13.20;;;13.40;90.50;;;;;;6246740;23;20314;-81
2023/03/10 02:48:34;;;;;;;19.77;13.35;;;13.40;90.50;;;;;;6247242;23;20009;-81
2023/03/10 02:51:03;;;;;;;22.00;14.00;;;13.40;90.50;;;;;;6246530;23;20057;-80
2023/03/10 02:53:29;;;;;;;23.00;13.55;;;13.40;90.50;;;;;;6246865;23;20109;-83
2023/03/10 02:55:56;;;;;;;15.20;12.40;;;13.40;90.50;;;;;;6247735;23;20446;-82
2023/03/10 02:58:24;;;;;;;19.75;13.23;;;13.40;90.40;;;;;;6246925;23;20032;-82
2023/03/10 03:00:50;;;;;;;17.05;11.70;;;13.40;90.50;;;;;;6247048;23;19996;-81
2023/03/10 03:03:18;;;;;;;19.50;12.73;;;13.40;90.70;;;;;;6246856;23;20000;-81
2023/03/10 03:05:44;;;;;;;16.55;11.57;;;13.40;90.70;;;;;;6246821;23;20027;-80
2023/03/10 03:08:10;;;;;;;21.15;13.23;;;13.30;90.50;;;;;;6247026;23;20418;-81
2023/03/10 03:10:37;;;;;;;18.48;12.55;;;13.40;90.60;;;;;;6247089;23;20036;-80
2023/03/10 03:13:03;;;;;;;18.83;13.65;;;13.40;90.60;;;;;;6246436;23;19996;-81
2023/03/10 03:15:29;;;;;;;17.63;12.82;;;13.50;90.60;;;;;;6246598;23;20008;-81
2023/03/10 03:17:57;;;;;;;17.30;11.68;;;13.50;90.50;;;;;;6247087;23;20004;-81
2023/03/10 03:20:24;;;;;;;16.67;11.38;;;13.50;90.40;;;;;;6246466;23;20031;-81
2023/03/10 03:22:50;;;;;;;21.23;12.32;;;13.50;90.50;;;;;;6246833;23;19996;-81
2023/03/10 03:25:18;;;;;;;17.92;12.63;;;13.50;90.40;;;;;;6219879;23;20004;-81
2023/03/10 03:27:45;;;;;;;18.38;11.90;;;13.50;90.50;;;;;;6246224;23;20000;-81
2023/03/10 03:30:16;;;;;;;18.58;11.75;;;13.50;90.50;;;;;;6246837;23;20008;-82
2023/03/10 03:32:41;;;;;;;17.63;12.10;;;13.50;90.50;;;;;;6219022;23;20316;-82
2023/03/10 03:35:21;;;;;;;19.27;12.40;;;13.50;90.40;;;;;;6219873;23;20062;-82
2023/03/10 03:37:46;;;;;;;17.73;12.50;;;13.40;90.40;;;;;;6219871;23;20034;-82
2023/03/10 03:40:13;;;;;;;17.27;12.00;;;13.40;90.40;;;;;;6246797;23;20004;-82
2023/03/10 03:42:42;;;;;;;14.32;11.60;;;13.40;90.50;;;;;;6245875;23;20000;-82
2023/03/10 03:45:09;;;;;;;20.98;13.68;;;13.40;90.40;;;;;;6246337;23;20354;-81
2023/03/10 03:47:35;;;;;;;20.05;13.60;;;13.30;90.40;;;;;;6246071;23;20027;-82
2023/03/10 03:50:01;;;;;;;20.48;13.23;;;13.30;90.50;;;;;;6246948;23;20427;-81
2023/03/10 03:52:27;;;;;;;16.30;13.82;;;13.20;90.40;;;;;;6246806;23;20079;-82
2023/03/10 03:54:53;;;;;;;22.30;13.93;;;13.20;90.50;;;;;;6245746;23;20039;-81
2023/03/10 03:57:19;;;;;;;16.70;12.63;;;13.20;90.50;;;;;;6245620;23;20312;-82
2023/03/10 03:59:45;;;;;;;18.17;12.63;;;13.20;90.40;;;;;;6219472;23;20008;-81
2023/03/10 04:02:10;;;;;;;18.60;13.90;;;13.10;90.50;;;;;;6245782;23;20000;-81
2023/03/10 04:04:36;;;;;;;17.63;12.93;;;13.20;90.60;;;;;;6246267;23;20346;-81
2023/03/10 04:07:02;;;;;;;19.08;13.57;;;13.10;90.50;;;;;;6245625;23;19996;-81
2023/03/10 04:09:28;;;;;;;17.58;13.10;;;13.10;90.50;;;;;;6245688;23;20008;-81
2023/03/10 04:11:54;;;;;;;18.83;13.40;;;13.10;90.60;;;;;;6218827;23;20438;-81
2023/03/10 04:14:20;;;;;;;20.15;13.93;;;13.10;90.50;;;;;;6245643;23;20000;-81
2023/03/10 04:16:47;;;;;;;20.02;14.00;;;13.10;90.50;;;;;;6245655;23;20097;-81
2023/03/10 04:19:13;;;;;;;19.52;14.23;;;13.10;90.50;;;;;;6245160;23;20028;-82
2023/03/10 04:21:39;;;;;;;17.08;12.13;;;13.00;90.70;;;;;;6244404;23;20331;-81
2023/03/10 04:24:05;;;;;;;17.98;12.02;;;13.00;90.70;;;;;;6218968;23;20004;-81
2023/03/10 04:26:31;;;;;;;18.60;13.38;;;13.00;90.80;;;;;;6245791;23;20003;-82
2023/03/10 04:28:57;;;;;;;21.15;14.15;;;12.90;91.00;;;;;;6245332;23;20004;-82
2023/03/10 04:31:23;;;;;;;20.55;13.60;;;12.90;91.20;;;;;;6245265;23;20038;-81
2023/03/10 04:33:50;;;;;;;17.60;13.68;;;12.80;91.10;;;;;;6218019;23;20031;-82
2023/03/10 04:36:17;;;;;;;14.82;12.75;;;12.80;91.20;;;;;;6218542;23;20069;-82
2023/03/10 04:38:43;;;;;;;16.40;12.57;;;12.90;91.10;;;;;;6245625;23;20004;-82
2023/03/10 04:41:09;;;;;;;21.75;13.13;;;12.90;91.10;;;;;;6245893;23;20008;-81
2023/03/10 04:43:36;;;;;;;16.77;12.98;;;12.90;91.10;;;;;;6245962;23;20004;-81
2023/03/10 04:46:01;;;;;;;17.13;13.00;;;12.90;91.10;;;;;;6246773;23;20027;-81
2023/03/10 04:48:28;;;;;;;19.75;13.27;;;13.00;91.10;;;;;;6246703;23;20406;-81
2023/03/10 04:50:55;;;;;;;18.95;13.10;;;13.00;91.00;;;;;;6245851;23;20062;-80
2023/03/10 04:53:21;;;;;;;20.95;13.13;;;13.00;91.00;;;;;;6245535;23;20075;-80
2023/03/10 04:55:46;;;;;;;19.58;13.20;;;13.10;90.90;;;;;;6245898;23;20593;-81
2023/03/10 04:58:12;;;;;;;19.60;13.27;;;13.10;90.90;;;;;;6245362;23;20434;-81
2023/03/10 05:00:39;;;;;;;17.65;13.52;;;13.20;90.90;;;;;;6245667;23;20338;-81
2023/03/10 05:03:05;;;;;;;16.83;12.88;;;13.20;90.80;;;;;;6245188;23;20004;-80
2023/03/10 05:05:33;;;;;;;19.65;13.98;;;13.20;91.10;;;;;;6245793;23;20011;-80
2023/03/10 05:07:59;;;;;;;19.83;13.23;;;13.20;90.90;;;;;;6245962;23;20028;-80
2023/03/10 05:10:25;;;;;;;19.08;12.63;;;13.30;90.90;;;;;;6245841;23;20011;-79
2023/03/10 05:12:50;;;;;;;18.63;12.55;;;13.30;90.90;;;;;;6245951;23;20000;-87
2023/03/10 05:15:16;;;;;;;22.13;13.07;;;13.40;90.80;;;;;;6246413;23;20423;-85
2023/03/10 05:17:42;;;;;;;21.15;13.07;;;13.40;90.70;;;;;;6246372;23;20101;-85
2023/03/10 05:20:09;;;;;;;19.65;12.55;;;13.40;90.70;;;;;;6246128;23;20000;-86
2023/03/10 05:22:36;;;;;;;23.83;12.43;;;13.40;90.70;;;;;;6245368;23;20434;-82
2023/03/10 05:25:03;;;;;;;18.38;12.18;;;13.40;90.70;;;;;;6245005;23;20379;-82
2023/03/10 05:27:30;;;;;;;18.10;13.00;;;13.40;90.80;;;;;;6217718;23;20373;-83
2023/03/10 05:29:56;;;;;;;18.08;12.63;;;13.40;90.80;;;;;;6245081;23;20595;-82
2023/03/10 05:32:22;;;;;;;14.75;11.60;;;13.50;90.80;;;;;;6244580;23;20019;-82
2023/03/10 05:34:47;;;;;;;21.75;12.75;;;13.50;90.70;;;;;;6218273;23;20010;-83
2023/03/10 05:37:13;;;;;;;16.27;12.25;;;13.50;90.70;;;;;;6244837;23;20004;-82
2023/03/10 05:39:39;;;;;;;19.45;12.60;;;13.50;90.70;;;;;;6246910;23;20008;-77
2023/03/10 05:42:04;;;;;;;16.77;12.10;;;13.60;90.70;;;;;;6246799;23;20075;-77
2023/03/10 05:44:30;;;;;;;15.88;11.65;;;13.60;90.70;;;;;;6247811;23;20031;-77
2023/03/10 05:46:56;;;;;;;17.23;11.70;;;13.60;90.70;;;;;;6247282;23;20028;-79
2023/03/10 05:49:21;;;;;;;15.48;11.70;;;13.60;90.70;;;;;;6247141;23;20032;-78
2023/03/10 05:51:47;;;;;;;18.67;12.60;;;13.60;90.70;;;;;;6246973;23;20007;-79
2023/03/10 05:54:13;;;;;;;18.30;12.13;;;13.70;90.60;;;;;;6246476;23;20004;-79
2023/03/10 05:56:39;;;;;;;17.27;12.40;;;13.60;90.60;;;;;;6246083;23;20083;-79
2023/03/10 05:59:05;;;;;;;18.55;12.40;;;13.60;90.60;;;;;;6245786;23;20078;-80
2023/03/10 06:01:31;;;;;;;17.17;12.60;;;13.60;90.60;;;;;;6247118;23;20051;-80
2023/03/10 06:03:57;;;;;;;19.50;12.50;;;13.70;90.60;;;;;;6247326;23;20071;-81
2023/03/10 06:06:23;;;;;;;18.30;12.75;;;13.70;90.60;;;;;;6218557;23;20374;-80
2023/03/10 06:08:48;;;;;;;21.38;13.15;;;13.70;90.60;;;;;;6246500;23;20010;-81
2023/03/10 06:11:14;;;;;;;19.63;12.70;;;13.60;90.60;;;;;;6245764;23;20081;-80
2023/03/10 06:13:40;;;;;;;17.45;12.25;;;13.70;90.70;;;;;;6245377;23;20427;-80
2023/03/10 06:16:12;;;;;;;17.02;11.30;;;13.60;90.60;;;;;;6243200;23;20058;-81
2023/03/10 06:18:38;;;;;;;16.48;11.98;;;13.60;90.70;;;;;;6217563;23;20316;-80
2023/03/10 06:21:10;;;;;;;17.08;12.30;;;13.60;90.70;;;;;;6244276;23;20003;-80
2023/03/10 06:23:36;;;;;;;13.90;11.15;;;13.60;90.70;;;;;;6218205;23;20343;-80
2023/03/10 06:26:06;;;;;;;15.75;11.23;;;13.70;90.70;;;;;;6245702;23;19996;-87
2023/03/10 06:28:35;;;;;;;17.30;12.73;;;13.70;90.80;;;;;;6247827;23;20027;-85
2023/03/10 06:31:03;;;;;;;18.65;11.80;;;13.80;90.80;;;;;;6247066;23;20247;-83
2023/03/10 06:33:29;;;;;;;14.85;11.35;;;13.80;90.80;;;;;;6247030;23;20106;-82
2023/03/10 06:35:55;;;;;;;19.98;12.32;;;13.80;90.80;;;;;;6247455;23;20458;-83
2023/03/10 06:38:21;;;;;;;21.13;12.35;;;13.90;90.90;;;;;;6246900;23;20000;-83
2023/03/10 06:40:47;;;;;;;17.23;11.82;;;13.90;90.70;;;;;;6246698;23;20031;-83
2023/03/10 06:43:13;;;;;;;18.77;11.38;;;14.00;90.60;;;;;;6246726;23;20004;-83
2023/03/10 06:45:43;;;;;;;18.52;13.20;;;14.00;90.80;;;;;;6247287;23;19996;-83
2023/03/10 06:48:09;;;;;;;17.08;11.80;;;14.00;90.50;;;;;;6246354;23;20000;-84
2023/03/10 06:50:34;;;;;;;18.45;12.02;;;14.00;90.50;;;;;;6247357;23;20004;-83
2023/03/10 06:53:00;;;;;;;19.00;12.60;;;14.00;90.50;;;;;;6247257;23;20075;-84
2023/03/10 06:55:26;;;;;;;20.73;12.40;;;14.00;90.50;;;;;;6220278;23;20083;-83
2023/03/10 06:57:52;;;;;;;17.20;12.13;;;14.00;90.40;;;;;;6246803;23;20000;-82
2023/03/10 07:00:18;;;;;;;24.80;13.00;;;14.00;90.40;;;;;;6247007;23;20325;-82
2023/03/10 07:02:44;;;;;;;17.65;9.82;;;14.00;90.50;;;;;;6247264;23;20466;-85
2023/03/10 07:05:11;;;;;;;16.67;10.77;;;14.10;90.80;;;;;;6246883;23;20034;-82
2023/03/10 07:07:37;;;;;;;20.92;11.23;;;14.20;90.80;;;;;;6246840;23;20004;-82
2023/03/10 07:10:04;;;;;;;18.77;11.43;;;14.20;90.60;;;;;;6246822;23;20307;-81
2023/03/10 07:12:29;;;;;;;21.27;12.70;;;14.30;90.50;;;;;;6247074;23;20000;-81
2023/03/10 07:14:55;;;;;;;16.25;10.98;;;14.40;90.40;;;;;;6247329;23;20035;-81
2023/03/10 07:17:21;;;;;;;16.85;11.18;;;14.40;90.30;;;;;;6246575;23;20028;-81
2023/03/10 07:19:46;;;;;;;17.10;11.73;;;14.40;90.30;;;;;;6247053;23;20000;-84
2023/03/10 07:22:12;;;;;;;17.67;11.30;;;14.40;90.20;;;;;;6247006;23;19996;-82
2023/03/10 07:24:38;;;;;;;16.02;11.27;;;14.40;90.10;;;;;;6246754;23;20003;-78
2023/03/10 07:27:04;;;;;;;16.30;11.55;;;14.40;90.10;;;;;;6245698;23;20000;-77
2023/03/10 07:29:29;;;;;;;18.98;12.07;;;14.40;90.20;;;;;;6246263;23;20473;-77
2023/03/10 07:31:55;;;;;;;15.93;10.50;;;14.30;90.20;;;;;;6246520;23;20020;-77
2023/03/10 07:34:21;;;;;;;19.90;11.90;;;14.20;90.10;;;;;;6246620;23;20009;-77
2023/03/10 07:36:47;;;;;;;15.75;10.98;;;14.20;90.30;;;;;;6219670;23;20091;-77
2023/03/10 07:39:13;;;;;;;17.27;11.00;;;14.20;90.30;;;;;;6246842;23;20038;-77
2023/03/10 07:41:38;;;;;;;15.20;11.00;;;14.20;90.40;;;;;;6246891;23;20000;-77
2023/03/10 07:44:04;;;;;;;18.55;10.77;;;14.30;90.50;;;;;;6219801;23;20007;-77
2023/03/10 07:46:30;;;;;;;19.58;11.35;;;14.20;90.50;;;;;;6246359;23;19996;-77
2023/03/10 07:48:58;;;;;;;18.15;10.02;;;14.30;90.50;;;;;;6246916;23;20019;-77
2023/03/10 07:51:24;;;;;;;14.95;10.48;;;14.20;90.40;;;;;;6246672;23;20000;-77
2023/03/10 07:53:50;;;;;;;13.15;9.60;;;14.30;90.50;;;;;;6246395;23;20054;-77
2023/03/10 07:56:16;;;;;;;15.27;9.95;;;14.30;90.60;;;;;;6246339;23;20012;-76
2023/03/10 07:58:41;;;;;;;18.05;11.10;;;14.30;90.60;;;;;;6245859;23;20023;-77
2023/03/10 08:01:17;;;;;;;20.65;11.18;;;14.40;90.60;;;;;;6245596;23;20284;-78
2023/03/10 08:03:43;;;;;;;18.08;12.43;;;14.30;90.50;;;;;;6246051;23;19996;-78
2023/03/10 08:06:19;;;;;;;20.88;12.68;;;14.40;90.50;;;;;;6246502;23;20000;-78
2023/03/10 08:08:45;;;;;;;20.90;13.00;;;14.40;90.50;;;;;;6246356;23;20000;-78
2023/03/10 08:11:10;;;;;;;19.25;12.95;;;14.40;90.50;;;;;;6219489;23;20081;-78
2023/03/10 08:13:37;;;;;;;26.63;15.82;;;14.30;90.50;;;;;;6245388;23;20071;-78
2023/03/10 08:16:03;;;;;;;21.88;13.38;;;14.20;90.50;;;;;;6246125;23;20004;-79
2023/03/10 08:18:30;;;;;;;15.25;11.25;;;14.10;90.80;;;;;;6245553;23;20008;-78
2023/03/10 08:20:56;;;;;;;20.10;12.05;;;14.20;90.70;;;;;;6219152;23;20004;-78
2023/03/10 08:23:24;;;;;;;17.67;11.90;;;14.20;90.70;;;;;;6245543;23;20079;-83
2023/03/10 08:25:50;;;;;;;18.92;12.45;;;14.30;90.70;;;;;;6245821;23;20023;-83
2023/03/10 08:28:16;;;;;;;20.95;12.18;;;14.40;90.70;;;;;;6218624;23;20008;-83
2023/03/10 08:30:42;;;;;;;18.52;12.55;;;14.50;90.90;;;;;;6246016;23;20003;-81
2023/03/10 08:33:08;;;;;;;17.02;10.93;;;14.60;90.60;;;;;;6219474;23;20004;-82
2023/03/10 08:35:36;;;;;;;19.02;11.40;;;14.70;90.80;;;;;;6246055;23;20003;-82
2023/03/10 08:38:03;;;;;;;21.52;11.10;;;14.80;90.30;;;;;;6246007;23;19997;-83
2023/03/10 08:40:29;;;;;;;17.90;10.45;;;14.90;90.40;;;;;;6245975;23;20062;-82
2023/03/10 08:42:55;;;;;;;17.67;10.18;;;15.00;90.40;;;;;;6246251;23;20023;-83
2023/03/10 08:45:20;;;;;;;22.13;9.82;;;15.20;90.30;;;;;;6246508;23;20003;-83
2023/03/10 08:47:46;;;;;;;14.35;8.90;;;15.40;90.30;;;;;;6245987;23;19996;-82
2023/03/10 08:50:12;;;;;;;12.57;8.48;;;15.60;90.10;;;;;;6246328;23;20441;-81
2023/03/10 08:52:39;;;;;;;12.65;7.22;;;15.70;90.00;;;;;;6246364;23;20322;-82
2023/03/10 08:55:05;;;;;;;11.85;5.85;;;15.90;89.70;;;;;;6246685;23;20011;-82
2023/03/10 08:57:31;;;;;;;14.98;7.78;;;16.00;89.50;;;;;;6246083;23;20027;-83
2023/03/10 08:59:57;;;;;;;9.65;6.57;;;16.00;89.00;;;;;;6246381;23;20004;-82
2023/03/10 09:02:24;;;;;;;10.38;6.80;;;16.10;88.90;;;;;;6246283;23;20054;-82
2023/03/10 09:04:49;;;;;;;12.40;6.53;;;16.10;89.00;;;;;;6219230;23;20007;-82
2023/03/10 09:07:16;;;;;;;11.63;6.72;;;16.30;89.10;;;;;;6246262;23;20000;-83
2023/03/10 09:09:42;;;;;;;11.38;6.07;;;16.40;88.90;;;;;;6246419;23;20004;-83
2023/03/10 09:12:09;;;;;;;11.93;7.20;;;16.40;88.30;;;;;;6245620;23;20057;-83
2023/03/10 09:14:36;;;;;;;16.77;8.23;;;16.40;88.00;;;;;;6218659;23;20004;-83
2023/03/10 09:17:02;;;;;;;14.80;7.50;;;16.40;87.70;;;;;;6245400;23;20007;-84
2023/03/10 09:19:28;;;;;;;15.85;7.78;;;16.30;88.00;;;;;;6245645;23;20073;-83
2023/03/10 09:21:56;;;;;;;13.35;7.75;;;16.30;88.40;;;;;;6218557;23;20402;-83
2023/03/10 09:24:22;;;;;;;16.58;8.27;;;16.30;88.90;;;;;;6245745;23;19996;-83
2023/03/10 09:26:48;;;;;;;18.58;9.60;;;16.00;89.50;;;;;;6244747;23;20001;-83
2023/03/10 09:29:14;;;;;;;11.60;6.55;;;15.70;90.10;;;;;;6243422;23;20008;-83
2023/03/10 09:31:40;;;;;;;13.90;6.85;;;15.80;90.30;;;;;;6244638;23;20393;-84
2023/03/10 09:34:07;;;;;;;17.17;7.68;;;15.90;90.10;;;;;;6240829;23;20008;-83
2023/03/10 09:36:33;;;;;;;18.48;7.70;;;16.10;90.10;;;;;;6245147;23;20011;-86
2023/03/10 09:39:08;;;;;;;17.10;6.43;;;16.20;89.80;;;;;;6246705;23;20103;-89
2023/03/10 09:41:36;;;;;;;12.40;6.25;;;16.30;89.40;;;;;;6246264;23;20327;-85
2023/03/10 09:44:14;;;;;;;15.05;7.78;;;16.40;89.20;;;;;;6246643;23;20000;-87
2023/03/10 09:47:06;;;;;;;14.45;7.13;;;16.50;88.90;;;;;;6246866;23;20411;-90
2023/03/10 09:49:32;;;;;;;11.32;6.45;;;16.60;88.70;;;;;;6238058;23;20005;-86
2023/03/10 09:51:58;;;;;;;17.65;7.43;;;16.60;88.30;;;;;;6219373;23;20008;-86
2023/03/10 09:54:33;;;;;;;10.85;6.20;;;16.60;88.20;;;;;;6245875;23;20034;-86
2023/03/10 09:57:00;;;;;;;14.60;6.97;;;16.70;88.20;;;;;;6217997;23;20375;-87
2023/03/10 09:59:40;;;;;;;15.35;7.03;;;16.70;88.30;;;;;;6245236;23;20350;-86
2023/03/10 10:02:33;;;;;;;17.17;7.63;;;16.80;88.20;;;;;;6218595;23;20008;-87
2023/03/10 10:05:03;;;;;;;11.02;6.35;;;17.00;87.80;;;;;;6229947;23;20000;-87
2023/03/10 10:07:39;;;;;;;14.95;6.68;;;17.10;87.60;;;;;;6246688;23;20007;-87
2023/03/10 10:10:13;;;;;;;10.27;6.45;;;17.30;87.40;;;;;;6245911;23;20036;-84
2023/03/10 10:12:42;;;;;;;15.20;6.78;;;17.40;87.10;;;;;;6218075;23;20106;-85
2023/03/10 10:15:17;;;;;;;11.35;6.28;;;17.60;86.90;;;;;;6245175;23;20035;-84
2023/03/10 10:18:07;;;;;;;15.35;6.65;;;17.90;86.80;;;;;;6245756;23;20005;-84
2023/03/10 10:20:50;;;;;;;11.93;5.95;;;18.20;86.40;;;;;;6245398;23;20000;-84
2023/03/10 10:23:23;;;;;;;12.23;6.78;;;18.60;85.80;;;;;;6245977;23;20008;-85
2023/03/10 10:25:49;;;;;;;14.60;7.38;;;18.80;85.00;;;;;;6247284;23;20000;-84
2023/03/10 10:28:24;;;;;;;12.25;6.68;;;19.10;83.70;;;;;;6219712;23;20065;-85
2023/03/10 10:30:49;;;;;;;11.07;5.50;;;19.20;83.20;;;;;;6247529;23;20078;-86
2023/03/10 10:33:15;;;;;;;9.10;5.00;;;19.40;82.80;;;;;;6247745;23;20410;-84
2023/03/10 10:36:04;;;;;;;8.98;5.07;;;19.60;82.20;;;;;;6246863;23;20418;-83
2023/03/10 10:38:31;;;;;;;12.38;4.75;;;19.80;80.80;;;;;;6246733;23;20007;-83
2023/03/10 10:41:04;;;;;;;13.70;4.88;;;20.00;80.50;;;;;;6219850;23;20054;-84
2023/03/10 10:43:30;;;;;;;11.13;4.93;;;20.10;80.40;;;;;;6246723;23;20078;-84
2023/03/10 10:46:03;;;;;;;9.02;3.75;;;20.30;80.20;;;;;;6247229;23;20006;-83
2023/03/10 10:48:39;;;;;;;7.03;2.97;;;20.50;79.00;;;;;;6245048;23;20004;-83
2023/03/10 10:51:29;;;;;;;8.02;2.42;;;20.60;76.60;;;;;;6217722;23;20069;-83
2023/03/10 10:53:56;;;;;;;12.88;4.55;;;20.70;76.30;;;;;;6246892;23;20000;-84
2023/03/10 10:56:27;;;;;;;11.65;6.00;;;20.80;76.10;;;;;;6245516;23;20379;-84
2023/03/10 10:59:03;;;;;;;11.85;6.22;;;21.00;76.60;;;;;;6248302;23;20008;-88
2023/03/10 11:02:26;;;;;;;10.40;6.13;;;21.30;76.40;;;;;;6222498;23;20180;-88
2023/03/10 11:04:52;;;;;;;10.32;6.63;;;21.50;75.90;;;;;;6098022;23;20081;-86
2023/03/10 11:07:26;;;;;;;12.82;7.05;;;21.70;75.50;;;;;;6213446;23;20083;-80
2023/03/10 11:09:53;;;;;;;17.83;7.20;;;21.90;74.90;;;;;;6246347;23;20011;-80
2023/03/10 11:12:22;;;;;;;16.75;7.22;;;22.00;74.60;;;;;;6219709;23;20009;-80
2023/03/10 11:15:07;;;;;;;15.23;5.93;;;22.10;74.30;;;;;;6246222;23;20000;-80
2023/03/10 11:17:40;;;;;;;9.95;5.75;;;22.30;73.80;;;;;;6246104;23;20423;-80
2023/03/10 11:20:47;;;;;;;9.30;5.28;;;22.40;72.80;;;;;;6219667;23;20035;-81
2023/03/10 11:23:28;;;;;;;8.63;4.80;;;22.40;72.20;;;;;;6091464;23;20142;-81
2023/03/10 11:26:05;;;;;;;14.60;6.18;;;22.30;72.50;;;;;;6212241;23;20020;-80
2023/03/10 11:28:52;;;;;;;14.60;5.90;;;22.30;71.80;;;;;;6219722;23;20047;-80
2023/03/10 11:31:43;;;;;;;13.73;5.68;;;22.40;71.90;;;;;;6219820;23;20016;-81
2023/03/10 11:34:29;;;;;;;11.98;5.38;;;22.50;71.90;;;;;;6246275;23;20028;-81
2023/03/10 11:37:29;;;;;;;14.05;5.30;;;22.70;71.10;;;;;;6245753;23;20003;-81
2023/03/10 11:40:07;;;;;;;13.07;5.25;;;22.90;70.90;;;;;;6246956;23;20079;-79
2023/03/10 11:42:51;;;;;;;12.80;5.45;;;23.20;70.90;;;;;;6219105;23;20004;-78
2023/03/10 11:45:23;;;;;;;11.88;4.57;;;23.50;70.10;;;;;;6246071;23;20042;-79
2023/03/10 11:48:10;;;;;;;16.35;4.90;;;24.00;68.40;;;;;;6218871;23;20000;-79
2023/03/10 11:50:48;;;;;;;10.50;3.88;;;24.80;66.80;;;;;;6246364;23;20007;-78
2023/03/10 11:53:29;;;;;;;13.25;4.75;;;26.10;64.90;;;;;;6246285;23;20004;-80
2023/03/10 11:55:56;;;;;;;13.43;5.05;;;27.40;62.80;;;;;;6246159;23;20004;-79
2023/03/10 11:58:47;;;;;;;10.40;4.57;;;28.50;60.30;;;;;;6246013;23;20004;-79
2023/03/10 12:01:17;;;;;;;9.05;3.53;;;29.60;56.50;;;;;;6245870;23;20028;-79
2023/03/10 12:04:15;;;;;;;14.57;5.43;;;30.10;54.00;;;;;;6245896;23;20000;-79
2023/03/10 12:07:10;;;;;;;12.18;4.30;;;30.70;51.90;;;;;;6137787;23;20050;-79
2023/03/10 12:09:53;;;;;;;14.40;4.95;;;31.10;50.90;;;;;;6245515;23;20484;-79
2023/03/10 12:12:35;;;;;;;14.07;6.63;;;31.50;50.20;;;;;;6245628;23;20024;-80
2023/03/10 12:15:24;;;;;;;13.73;7.05;;;31.70;48.20;;;;;;6244711;23;20015;-79
2023/03/10 12:17:52;;;;;;;13.57;5.93;;;31.80;47.40;;;;;;6218578;23;20010;-80
2023/03/10 12:20:17;;;;;;;12.98;5.90;;;31.90;47.30;;;;;;6244444;23;20027;-80
2023/03/10 12:22:58;;;;;;;13.82;5.97;;;32.00;47.70;;;;;;6245476;23;20004;-80
2023/03/10 12:25:31;;;;;;;13.88;6.60;;;32.10;46.80;;;;;;6243170;23;20319;-79
2023/03/10 12:28:15;;;;;;;14.15;6.75;;;32.00;46.30;;;;;;6244048;23;20004;-79
2023/03/10 12:30:47;;;;;;;12.80;6.63;;;31.90;45.90;;;;;;6244902;23;20394;-79
2023/03/10 12:33:36;;;;;;;12.60;5.78;;;31.70;46.80;;;;;;6218878;23;20434;-79
2023/03/10 12:36:11;;;;;;;13.55;6.43;;;31.40;46.80;;;;;;6245699;23;20011;-78
2023/03/10 12:39:00;;;;;;;15.50;6.38;;;31.30;47.00;;;;;;6244100;23;20005;-82
2023/03/10 12:41:25;;;;;;;18.52;6.72;;;31.00;46.70;;;;;;6246404;23;20038;-83
2023/03/10 12:43:51;;;;;;;13.05;6.72;;;30.80;46.60;;;;;;6216819;23;20099;-81